sensor_id;sensor_type;location;lat;lon;timestamp;P1;durP1;ratioP1;P2;durP2;ratioP2
3211;SDS011;1618;47.056;15.472;2023-12-20T00:00:01;25.60;;;24.40;;
3211;SDS011;1618;47.056;15.472;2023-12-20T00:02:29;24.90;;;23.70;;
3211;SDS011;1618;47.056;15.472;2023-12-20T00:04:58;24.70;;;23.50;;
3211;SDS011;1618;47.056;15.472;2023-12-20T00:07:26;23.60;;;22.50;;
3211;SDS011;1618;47.056;15.472;2023-12-20T00:09:56;24.50;;;23.37;;
3211;SDS011;1618;47.056;15.472;2023-12-20T00:12:23;24.20;;;23.10;;
3211;SDS011;1618;47.056;15.472;2023-12-20T00:14:51;23.90;;;22.80;;
3211;SDS011;1618;47.056;15.472;2023-12-20T00:17:19;24.40;;;23.30;;
3211;SDS011;1618;47.056;15.472;2023-12-20T00:19:47;24.27;;;23.17;;
3211;SDS011;1618;47.056;15.472;2023-12-20T00:22:15;25.57;;;24.37;;
3211;SDS011;1618;47.056;15.472;2023-12-20T00:24:43;25.07;;;23.87;;
3211;SDS011;1618;47.056;15.472;2023-12-20T00:27:12;24.70;;;23.60;;
3211;SDS011;1618;47.056;15.472;2023-12-20T00:29:41;25.30;;;24.10;;
3211;SDS011;1618;47.056;15.472;2023-12-20T00:32:14;26.00;;;24.80;;
3211;SDS011;1618;47.056;15.472;2023-12-20T00:34:42;25.93;;;24.73;;
3211;SDS011;1618;47.056;15.472;2023-12-20T00:37:10;25.90;;;24.70;;
3211;SDS011;1618;47.056;15.472;2023-12-20T00:39:39;25.93;;;24.73;;
3211;SDS011;1618;47.056;15.472;2023-12-20T00:42:06;25.40;;;24.20;;
3211;SDS011;1618;47.056;15.472;2023-12-20T00:44:36;24.80;;;23.70;;
3211;SDS011;1618;47.056;15.472;2023-12-20T00:47:03;25.43;;;24.23;;
3211;SDS011;1618;47.056;15.472;2023-12-20T00:49:32;25.30;;;24.10;;
3211;SDS011;1618;47.056;15.472;2023-12-20T00:51:59;25.77;;;24.57;;
3211;SDS011;1618;47.056;15.472;2023-12-20T00:54:29;27.13;;;25.83;;
3211;SDS011;1618;47.056;15.472;2023-12-20T00:56:57;25.97;;;24.77;;
3211;SDS011;1618;47.056;15.472;2023-12-20T00:59:24;25.63;;;24.43;;
3211;SDS011;1618;47.056;15.472;2023-12-20T01:01:54;24.63;;;23.43;;
3211;SDS011;1618;47.056;15.472;2023-12-20T01:04:23;25.33;;;24.13;;
3211;SDS011;1618;47.056;15.472;2023-12-20T01:06:51;25.13;;;23.93;;
3211;SDS011;1618;47.056;15.472;2023-12-20T01:09:18;25.20;;;24.00;;
3211;SDS011;1618;47.056;15.472;2023-12-20T01:11:48;25.30;;;24.10;;
3211;SDS011;1618;47.056;15.472;2023-12-20T01:14:17;25.10;;;23.90;;
3211;SDS011;1618;47.056;15.472;2023-12-20T01:16:46;25.93;;;24.73;;
3211;SDS011;1618;47.056;15.472;2023-12-20T01:19:17;26.30;;;25.10;;
3211;SDS011;1618;47.056;15.472;2023-12-20T01:21:45;26.50;;;25.23;;
3211;SDS011;1618;47.056;15.472;2023-12-20T01:24:12;26.57;;;25.30;;
3211;SDS011;1618;47.056;15.472;2023-12-20T01:26:40;26.23;;;25.03;;
3211;SDS011;1618;47.056;15.472;2023-12-20T01:29:08;26.07;;;24.87;;
3211;SDS011;1618;47.056;15.472;2023-12-20T01:31:36;26.63;;;25.40;;
3211;SDS011;1618;47.056;15.472;2023-12-20T01:34:03;25.40;;;24.20;;
3211;SDS011;1618;47.056;15.472;2023-12-20T01:36:38;26.03;;;24.83;;
3211;SDS011;1618;47.056;15.472;2023-12-20T01:39:05;26.03;;;24.83;;
3211;SDS011;1618;47.056;15.472;2023-12-20T01:41:37;25.70;;;24.50;;
3211;SDS011;1618;47.056;15.472;2023-12-20T01:44:06;25.93;;;24.73;;
3211;SDS011;1618;47.056;15.472;2023-12-20T01:46:33;25.30;;;24.10;;
3211;SDS011;1618;47.056;15.472;2023-12-20T01:49:01;24.37;;;23.27;;
3211;SDS011;1618;47.056;15.472;2023-12-20T01:51:29;25.27;;;24.07;;
3211;SDS011;1618;47.056;15.472;2023-12-20T01:53:57;26.70;;;25.50;;
3211;SDS011;1618;47.056;15.472;2023-12-20T01:56:26;26.57;;;25.37;;
3211;SDS011;1618;47.056;15.472;2023-12-20T01:58:53;25.97;;;24.80;;
3211;SDS011;1618;47.056;15.472;2023-12-20T02:01:23;26.63;;;25.43;;
3211;SDS011;1618;47.056;15.472;2023-12-20T02:03:53;25.80;;;24.67;;
3211;SDS011;1618;47.056;15.472;2023-12-20T02:06:21;27.23;;;25.93;;
3211;SDS011;1618;47.056;15.472;2023-12-20T02:08:50;27.10;;;25.80;;
3211;SDS011;1618;47.056;15.472;2023-12-20T02:11:19;26.93;;;25.70;;
3211;SDS011;1618;47.056;15.472;2023-12-20T02:13:47;27.40;;;26.10;;
3211;SDS011;1618;47.056;15.472;2023-12-20T02:16:15;26.57;;;25.37;;
3211;SDS011;1618;47.056;15.472;2023-12-20T02:18:44;26.17;;;24.97;;
3211;SDS011;1618;47.056;15.472;2023-12-20T02:21:11;26.50;;;25.30;;
3211;SDS011;1618;47.056;15.472;2023-12-20T02:23:44;26.67;;;25.40;;
3211;SDS011;1618;47.056;15.472;2023-12-20T02:26:11;26.50;;;25.30;;
3211;SDS011;1618;47.056;15.472;2023-12-20T02:28:40;25.47;;;24.27;;
3211;SDS011;1618;47.056;15.472;2023-12-20T02:31:08;25.70;;;24.50;;
3211;SDS011;1618;47.056;15.472;2023-12-20T02:33:36;25.70;;;24.50;;
3211;SDS011;1618;47.056;15.472;2023-12-20T02:36:06;25.90;;;24.70;;
3211;SDS011;1618;47.056;15.472;2023-12-20T02:38:35;25.30;;;24.10;;
3211;SDS011;1618;47.056;15.472;2023-12-20T02:41:03;26.20;;;25.00;;
3211;SDS011;1618;47.056;15.472;2023-12-20T02:43:31;26.30;;;25.10;;
3211;SDS011;1618;47.056;15.472;2023-12-20T02:45:58;25.97;;;24.77;;
3211;SDS011;1618;47.056;15.472;2023-12-20T02:48:28;26.00;;;24.80;;
3211;SDS011;1618;47.056;15.472;2023-12-20T02:50:55;26.10;;;24.90;;
3211;SDS011;1618;47.056;15.472;2023-12-20T02:53:22;26.47;;;25.20;;
3211;SDS011;1618;47.056;15.472;2023-12-20T02:55:50;26.90;;;25.60;;
3211;SDS011;1618;47.056;15.472;2023-12-20T02:58:19;26.77;;;25.47;;
3211;SDS011;1618;47.056;15.472;2023-12-20T03:00:52;26.70;;;25.40;;
3211;SDS011;1618;47.056;15.472;2023-12-20T03:03:28;26.70;;;25.40;;
3211;SDS011;1618;47.056;15.472;2023-12-20T03:05:56;25.67;;;24.47;;
3211;SDS011;1618;47.056;15.472;2023-12-20T03:08:24;25.83;;;24.63;;
3211;SDS011;1618;47.056;15.472;2023-12-20T03:10:52;26.17;;;24.97;;
3211;SDS011;1618;47.056;15.472;2023-12-20T03:13:20;25.60;;;24.40;;
3211;SDS011;1618;47.056;15.472;2023-12-20T03:15:56;26.50;;;25.20;;
3211;SDS011;1618;47.056;15.472;2023-12-20T03:18:24;26.00;;;24.80;;
3211;SDS011;1618;47.056;15.472;2023-12-20T03:20:54;28.00;;;26.70;;
3211;SDS011;1618;47.056;15.472;2023-12-20T03:23:23;27.80;;;26.50;;
3211;SDS011;1618;47.056;15.472;2023-12-20T03:25:51;27.50;;;26.20;;
3211;SDS011;1618;47.056;15.472;2023-12-20T03:28:22;26.70;;;25.50;;
3211;SDS011;1618;47.056;15.472;2023-12-20T03:30:49;26.20;;;25.00;;
3211;SDS011;1618;47.056;15.472;2023-12-20T03:33:17;27.70;;;26.40;;
3211;SDS011;1618;47.056;15.472;2023-12-20T03:35:47;26.53;;;25.30;;
3211;SDS011;1618;47.056;15.472;2023-12-20T03:38:15;26.00;;;24.80;;
3211;SDS011;1618;47.056;15.472;2023-12-20T03:40:44;26.00;;;24.80;;
3211;SDS011;1618;47.056;15.472;2023-12-20T03:43:11;26.50;;;25.20;;
3211;SDS011;1618;47.056;15.472;2023-12-20T03:45:40;26.10;;;24.90;;
3211;SDS011;1618;47.056;15.472;2023-12-20T03:48:09;26.20;;;25.00;;
3211;SDS011;1618;47.056;15.472;2023-12-20T03:50:38;26.10;;;24.90;;
3211;SDS011;1618;47.056;15.472;2023-12-20T03:53:05;26.80;;;25.50;;
3211;SDS011;1618;47.056;15.472;2023-12-20T03:55:34;25.60;;;24.40;;
3211;SDS011;1618;47.056;15.472;2023-12-20T03:58:02;25.20;;;24.00;;
3211;SDS011;1618;47.056;15.472;2023-12-20T04:00:34;25.60;;;24.40;;
3211;SDS011;1618;47.056;15.472;2023-12-20T04:03:03;24.93;;;23.73;;
3211;SDS011;1618;47.056;15.472;2023-12-20T04:05:37;25.37;;;24.17;;
3211;SDS011;1618;47.056;15.472;2023-12-20T04:08:05;26.23;;;25.03;;
3211;SDS011;1618;47.056;15.472;2023-12-20T04:10:32;27.17;;;25.87;;
3211;SDS011;1618;47.056;15.472;2023-12-20T04:13:01;28.03;;;26.73;;
3211;SDS011;1618;47.056;15.472;2023-12-20T04:15:28;27.10;;;25.80;;
3211;SDS011;1618;47.056;15.472;2023-12-20T04:17:55;25.90;;;24.70;;
3211;SDS011;1618;47.056;15.472;2023-12-20T04:20:26;27.00;;;25.70;;
3211;SDS011;1618;47.056;15.472;2023-12-20T04:22:59;26.57;;;25.33;;
3211;SDS011;1618;47.056;15.472;2023-12-20T04:25:32;26.90;;;25.60;;
3211;SDS011;1618;47.056;15.472;2023-12-20T04:27:59;26.20;;;25.00;;
3211;SDS011;1618;47.056;15.472;2023-12-20T04:30:28;26.47;;;25.27;;
3211;SDS011;1618;47.056;15.472;2023-12-20T04:32:57;26.50;;;25.30;;
3211;SDS011;1618;47.056;15.472;2023-12-20T04:35:26;26.53;;;25.33;;
3211;SDS011;1618;47.056;15.472;2023-12-20T04:37:55;26.70;;;25.47;;
3211;SDS011;1618;47.056;15.472;2023-12-20T04:40:22;26.10;;;24.90;;
3211;SDS011;1618;47.056;15.472;2023-12-20T04:42:51;24.73;;;23.63;;
3211;SDS011;1618;47.056;15.472;2023-12-20T04:45:20;26.70;;;25.50;;
3211;SDS011;1618;47.056;15.472;2023-12-20T04:47:49;26.53;;;25.33;;
3211;SDS011;1618;47.056;15.472;2023-12-20T04:50:21;26.07;;;24.87;;
3211;SDS011;1618;47.056;15.472;2023-12-20T04:52:49;26.00;;;24.80;;
3211;SDS011;1618;47.056;15.472;2023-12-20T04:55:17;26.10;;;25.00;;
3211;SDS011;1618;47.056;15.472;2023-12-20T04:57:45;25.20;;;24.10;;
3211;SDS011;1618;47.056;15.472;2023-12-20T05:00:12;26.00;;;24.80;;
3211;SDS011;1618;47.056;15.472;2023-12-20T05:02:41;26.30;;;25.10;;
3211;SDS011;1618;47.056;15.472;2023-12-20T05:05:08;25.20;;;24.10;;
3211;SDS011;1618;47.056;15.472;2023-12-20T05:07:36;25.97;;;24.77;;
3211;SDS011;1618;47.056;15.472;2023-12-20T05:10:06;25.90;;;24.70;;
3211;SDS011;1618;47.056;15.472;2023-12-20T05:12:36;26.07;;;24.87;;
3211;SDS011;1618;47.056;15.472;2023-12-20T05:15:04;25.97;;;24.77;;
3211;SDS011;1618;47.056;15.472;2023-12-20T05:17:34;26.80;;;25.60;;
3211;SDS011;1618;47.056;15.472;2023-12-20T05:20:03;27.57;;;26.27;;
3211;SDS011;1618;47.056;15.472;2023-12-20T05:22:32;26.53;;;25.33;;
3211;SDS011;1618;47.056;15.472;2023-12-20T05:25:01;26.03;;;24.83;;
3211;SDS011;1618;47.056;15.472;2023-12-20T05:27:32;25.90;;;24.70;;
3211;SDS011;1618;47.056;15.472;2023-12-20T05:29:59;24.93;;;23.73;;
3211;SDS011;1618;47.056;15.472;2023-12-20T05:32:27;25.20;;;24.10;;
3211;SDS011;1618;47.056;15.472;2023-12-20T05:34:56;25.60;;;24.40;;
3211;SDS011;1618;47.056;15.472;2023-12-20T05:37:28;24.30;;;23.20;;
3211;SDS011;1618;47.056;15.472;2023-12-20T05:39:55;24.57;;;23.47;;
3211;SDS011;1618;47.056;15.472;2023-12-20T05:42:23;24.33;;;23.23;;
3211;SDS011;1618;47.056;15.472;2023-12-20T05:44:53;24.40;;;23.30;;
3211;SDS011;1618;47.056;15.472;2023-12-20T05:47:21;23.37;;;22.37;;
3211;SDS011;1618;47.056;15.472;2023-12-20T05:49:48;23.63;;;22.63;;
3211;SDS011;1618;47.056;15.472;2023-12-20T05:52:16;23.20;;;22.20;;
3211;SDS011;1618;47.056;15.472;2023-12-20T05:54:44;22.70;;;21.70;;
3211;SDS011;1618;47.056;15.472;2023-12-20T05:57:12;23.03;;;22.03;;
3211;SDS011;1618;47.056;15.472;2023-12-20T05:59:39;22.93;;;21.93;;
3211;SDS011;1618;47.056;15.472;2023-12-20T06:02:10;23.50;;;22.50;;
3211;SDS011;1618;47.056;15.472;2023-12-20T06:04:41;21.87;;;20.90;;
3211;SDS011;1618;47.056;15.472;2023-12-20T06:07:11;23.00;;;22.00;;
3211;SDS011;1618;47.056;15.472;2023-12-20T06:09:39;22.60;;;21.60;;
3211;SDS011;1618;47.056;15.472;2023-12-20T06:12:07;22.50;;;21.50;;
3211;SDS011;1618;47.056;15.472;2023-12-20T06:14:35;21.73;;;20.83;;
3211;SDS011;1618;47.056;15.472;2023-12-20T06:17:03;20.70;;;19.80;;
3211;SDS011;1618;47.056;15.472;2023-12-20T06:19:32;20.17;;;19.37;;
3211;SDS011;1618;47.056;15.472;2023-12-20T06:22:00;26.07;;;24.97;;
3211;SDS011;1618;47.056;15.472;2023-12-20T06:24:28;25.97;;;24.87;;
3211;SDS011;1618;47.056;15.472;2023-12-20T06:27:00;25.70;;;24.60;;
3211;SDS011;1618;47.056;15.472;2023-12-20T06:29:29;23.77;;;22.77;;
3211;SDS011;1618;47.056;15.472;2023-12-20T06:31:57;23.33;;;22.33;;
3211;SDS011;1618;47.056;15.472;2023-12-20T06:34:26;22.67;;;21.67;;
3211;SDS011;1618;47.056;15.472;2023-12-20T06:36:56;25.27;;;24.17;;
3211;SDS011;1618;47.056;15.472;2023-12-20T06:39:24;25.57;;;24.47;;
3211;SDS011;1618;47.056;15.472;2023-12-20T06:41:52;25.60;;;24.50;;
3211;SDS011;1618;47.056;15.472;2023-12-20T06:44:21;23.90;;;22.90;;
3211;SDS011;1618;47.056;15.472;2023-12-20T06:46:53;25.30;;;24.20;;
3211;SDS011;1618;47.056;15.472;2023-12-20T06:49:20;23.60;;;22.60;;
3211;SDS011;1618;47.056;15.472;2023-12-20T06:51:49;23.50;;;22.50;;
3211;SDS011;1618;47.056;15.472;2023-12-20T06:54:18;21.67;;;20.77;;
3211;SDS011;1618;47.056;15.472;2023-12-20T06:56:46;23.37;;;22.37;;
3211;SDS011;1618;47.056;15.472;2023-12-20T06:59:14;22.90;;;21.90;;
3211;SDS011;1618;47.056;15.472;2023-12-20T07:01:47;22.80;;;21.80;;
3211;SDS011;1618;47.056;15.472;2023-12-20T07:04:15;23.70;;;22.70;;
3211;SDS011;1618;47.056;15.472;2023-12-20T07:06:50;23.20;;;22.20;;
3211;SDS011;1618;47.056;15.472;2023-12-20T07:09:21;23.70;;;22.70;;
3211;SDS011;1618;47.056;15.472;2023-12-20T07:11:49;25.17;;;24.07;;
3211;SDS011;1618;47.056;15.472;2023-12-20T07:14:18;24.97;;;23.87;;
3211;SDS011;1618;47.056;15.472;2023-12-20T07:16:47;25.03;;;23.93;;
3211;SDS011;1618;47.056;15.472;2023-12-20T07:19:19;25.17;;;24.07;;
3211;SDS011;1618;47.056;15.472;2023-12-20T07:21:47;24.37;;;23.27;;
3211;SDS011;1618;47.056;15.472;2023-12-20T07:24:15;24.87;;;23.77;;
3211;SDS011;1618;47.056;15.472;2023-12-20T07:26:44;26.20;;;25.00;;
3211;SDS011;1618;47.056;15.472;2023-12-20T07:29:13;24.90;;;23.80;;
3211;SDS011;1618;47.056;15.472;2023-12-20T07:31:41;26.33;;;25.13;;
3211;SDS011;1618;47.056;15.472;2023-12-20T07:34:09;25.23;;;24.13;;
3211;SDS011;1618;47.056;15.472;2023-12-20T07:36:36;26.20;;;25.00;;
3211;SDS011;1618;47.056;15.472;2023-12-20T07:39:06;28.63;;;27.33;;
3211;SDS011;1618;47.056;15.472;2023-12-20T07:41:34;27.40;;;26.20;;
3211;SDS011;1618;47.056;15.472;2023-12-20T07:44:03;26.10;;;24.90;;
3211;SDS011;1618;47.056;15.472;2023-12-20T07:46:31;27.13;;;25.93;;
3211;SDS011;1618;47.056;15.472;2023-12-20T07:49:00;28.70;;;27.40;;
3211;SDS011;1618;47.056;15.472;2023-12-20T07:51:28;29.07;;;27.77;;
3211;SDS011;1618;47.056;15.472;2023-12-20T07:53:55;29.23;;;27.93;;
3211;SDS011;1618;47.056;15.472;2023-12-20T07:56:22;28.50;;;27.20;;
3211;SDS011;1618;47.056;15.472;2023-12-20T07:58:50;27.23;;;26.03;;
3211;SDS011;1618;47.056;15.472;2023-12-20T08:01:19;28.10;;;26.80;;
3211;SDS011;1618;47.056;15.472;2023-12-20T08:03:47;29.57;;;28.27;;
3211;SDS011;1618;47.056;15.472;2023-12-20T08:06:19;29.10;;;27.80;;
3211;SDS011;1618;47.056;15.472;2023-12-20T08:08:48;29.23;;;27.83;;
3211;SDS011;1618;47.056;15.472;2023-12-20T08:11:15;29.27;;;27.90;;
3211;SDS011;1618;47.056;15.472;2023-12-20T08:13:42;29.83;;;28.47;;
3211;SDS011;1618;47.056;15.472;2023-12-20T08:16:09;28.07;;;26.77;;
3211;SDS011;1618;47.056;15.472;2023-12-20T08:18:40;28.30;;;27.00;;
3211;SDS011;1618;47.056;15.472;2023-12-20T08:21:08;27.30;;;26.00;;
3211;SDS011;1618;47.056;15.472;2023-12-20T08:23:36;27.60;;;26.30;;
3211;SDS011;1618;47.056;15.472;2023-12-20T08:26:04;27.97;;;26.67;;
3211;SDS011;1618;47.056;15.472;2023-12-20T08:28:31;27.73;;;26.43;;
3211;SDS011;1618;47.056;15.472;2023-12-20T08:31:00;28.97;;;27.57;;
3211;SDS011;1618;47.056;15.472;2023-12-20T08:33:27;30.20;;;28.80;;
3211;SDS011;1618;47.056;15.472;2023-12-20T08:35:57;30.60;;;29.10;;
3211;SDS011;1618;47.056;15.472;2023-12-20T08:38:24;30.17;;;28.67;;
3211;SDS011;1618;47.056;15.472;2023-12-20T08:40:51;31.60;;;30.10;;
3211;SDS011;1618;47.056;15.472;2023-12-20T08:43:20;30.80;;;29.40;;
3211;SDS011;1618;47.056;15.472;2023-12-20T08:45:47;31.17;;;29.77;;
3211;SDS011;1618;47.056;15.472;2023-12-20T08:48:14;31.87;;;30.37;;
3211;SDS011;1618;47.056;15.472;2023-12-20T08:50:42;31.20;;;29.70;;
3211;SDS011;1618;47.056;15.472;2023-12-20T08:53:11;31.93;;;30.43;;
3211;SDS011;1618;47.056;15.472;2023-12-20T08:55:38;31.20;;;29.70;;
3211;SDS011;1618;47.056;15.472;2023-12-20T08:58:05;30.80;;;29.40;;
3211;SDS011;1618;47.056;15.472;2023-12-20T09:00:34;30.10;;;28.60;;
3211;SDS011;1618;47.056;15.472;2023-12-20T09:03:02;30.37;;;28.87;;
3211;SDS011;1618;47.056;15.472;2023-12-20T09:05:35;31.20;;;29.70;;
3211;SDS011;1618;47.056;15.472;2023-12-20T09:08:02;31.00;;;29.40;;
3211;SDS011;1618;47.056;15.472;2023-12-20T09:10:30;31.40;;;29.80;;
3211;SDS011;1618;47.056;15.472;2023-12-20T09:12:58;32.00;;;30.40;;
3211;SDS011;1618;47.056;15.472;2023-12-20T09:15:26;32.63;;;31.03;;
3211;SDS011;1618;47.056;15.472;2023-12-20T09:17:57;33.70;;;32.00;;
3211;SDS011;1618;47.056;15.472;2023-12-20T09:20:25;31.67;;;30.07;;
3211;SDS011;1618;47.056;15.472;2023-12-20T09:22:54;31.93;;;30.23;;
3211;SDS011;1618;47.056;15.472;2023-12-20T09:25:21;31.87;;;30.17;;
3211;SDS011;1618;47.056;15.472;2023-12-20T09:27:51;30.40;;;28.80;;
3211;SDS011;1618;47.056;15.472;2023-12-20T09:30:19;30.73;;;29.13;;
3211;SDS011;1618;47.056;15.472;2023-12-20T09:32:48;32.03;;;30.33;;
3211;SDS011;1618;47.056;15.472;2023-12-20T09:35:15;31.17;;;29.47;;
3211;SDS011;1618;47.056;15.472;2023-12-20T09:37:43;31.97;;;30.27;;
3211;SDS011;1618;47.056;15.472;2023-12-20T09:40:14;31.10;;;29.40;;
3211;SDS011;1618;47.056;15.472;2023-12-20T09:42:43;31.33;;;29.63;;
3211;SDS011;1618;47.056;15.472;2023-12-20T09:45:19;32.33;;;30.53;;
3211;SDS011;1618;47.056;15.472;2023-12-20T09:47:49;31.90;;;30.20;;
3211;SDS011;1618;47.056;15.472;2023-12-20T09:50:17;33.50;;;31.70;;
3211;SDS011;1618;47.056;15.472;2023-12-20T09:52:46;34.13;;;32.23;;
3211;SDS011;1618;47.056;15.472;2023-12-20T09:55:15;34.60;;;32.70;;
3211;SDS011;1618;47.056;15.472;2023-12-20T09:57:44;34.30;;;32.40;;
3211;SDS011;1618;47.056;15.472;2023-12-20T10:00:12;33.00;;;31.20;;
3211;SDS011;1618;47.056;15.472;2023-12-20T10:02:45;33.90;;;32.00;;
3211;SDS011;1618;47.056;15.472;2023-12-20T10:05:15;34.73;;;32.73;;
3211;SDS011;1618;47.056;15.472;2023-12-20T10:07:44;36.17;;;34.27;;
3211;SDS011;1618;47.056;15.472;2023-12-20T10:10:12;33.60;;;31.70;;
3211;SDS011;1618;47.056;15.472;2023-12-20T10:12:42;33.80;;;31.80;;
3211;SDS011;1618;47.056;15.472;2023-12-20T10:15:29;36.00;;;33.90;;
3211;SDS011;1618;47.056;15.472;2023-12-20T10:18:00;34.43;;;32.33;;
3211;SDS011;1618;47.056;15.472;2023-12-20T10:20:30;34.70;;;32.60;;
3211;SDS011;1618;47.056;15.472;2023-12-20T10:22:59;34.80;;;32.70;;
3211;SDS011;1618;47.056;15.472;2023-12-20T10:25:27;34.70;;;32.60;;
3211;SDS011;1618;47.056;15.472;2023-12-20T10:28:09;35.40;;;33.30;;
3211;SDS011;1618;47.056;15.472;2023-12-20T10:30:37;34.33;;;32.23;;
3211;SDS011;1618;47.056;15.472;2023-12-20T10:33:07;35.07;;;32.97;;
3211;SDS011;1618;47.056;15.472;2023-12-20T10:35:40;34.60;;;32.50;;
3211;SDS011;1618;47.056;15.472;2023-12-20T10:38:08;34.93;;;32.83;;
3211;SDS011;1618;47.056;15.472;2023-12-20T10:40:40;34.40;;;32.30;;
3211;SDS011;1618;47.056;15.472;2023-12-20T10:43:09;33.57;;;31.53;;
3211;SDS011;1618;47.056;15.472;2023-12-20T10:45:37;33.20;;;31.20;;
3211;SDS011;1618;47.056;15.472;2023-12-20T10:48:06;32.70;;;30.70;;
3211;SDS011;1618;47.056;15.472;2023-12-20T10:50:34;33.20;;;31.10;;
3211;SDS011;1618;47.056;15.472;2023-12-20T10:53:03;33.67;;;31.57;;
3211;SDS011;1618;47.056;15.472;2023-12-20T10:55:32;33.57;;;31.37;;
3211;SDS011;1618;47.056;15.472;2023-12-20T10:58:01;34.00;;;31.70;;
3211;SDS011;1618;47.056;15.472;2023-12-20T11:00:29;33.50;;;31.30;;
3211;SDS011;1618;47.056;15.472;2023-12-20T11:02:59;36.40;;;34.00;;
3211;SDS011;1618;47.056;15.472;2023-12-20T11:05:31;34.00;;;31.80;;
3211;SDS011;1618;47.056;15.472;2023-12-20T11:08:01;33.67;;;31.47;;
3211;SDS011;1618;47.056;15.472;2023-12-20T11:10:31;33.33;;;31.13;;
3211;SDS011;1618;47.056;15.472;2023-12-20T11:13:00;33.50;;;31.30;;
3211;SDS011;1618;47.056;15.472;2023-12-20T11:15:30;32.57;;;30.47;;
3211;SDS011;1618;47.056;15.472;2023-12-20T11:17:58;32.37;;;30.27;;
3211;SDS011;1618;47.056;15.472;2023-12-20T11:20:36;32.90;;;30.80;;
3211;SDS011;1618;47.056;15.472;2023-12-20T11:23:05;33.10;;;31.00;;
3211;SDS011;1618;47.056;15.472;2023-12-20T11:25:48;32.67;;;30.57;;
3211;SDS011;1618;47.056;15.472;2023-12-20T11:28:20;33.70;;;31.60;;
3211;SDS011;1618;47.056;15.472;2023-12-20T11:30:50;32.13;;;30.13;;
3211;SDS011;1618;47.056;15.472;2023-12-20T11:33:20;31.93;;;29.93;;
3211;SDS011;1618;47.056;15.472;2023-12-20T11:35:49;32.23;;;30.23;;
3211;SDS011;1618;47.056;15.472;2023-12-20T11:38:17;32.73;;;30.63;;
3211;SDS011;1618;47.056;15.472;2023-12-20T11:40:49;33.00;;;30.90;;
3211;SDS011;1618;47.056;15.472;2023-12-20T11:43:30;33.57;;;31.47;;
3211;SDS011;1618;47.056;15.472;2023-12-20T11:46:08;33.33;;;31.23;;
3211;SDS011;1618;47.056;15.472;2023-12-20T11:48:36;33.70;;;31.50;;
3211;SDS011;1618;47.056;15.472;2023-12-20T11:51:10;33.53;;;31.43;;
3211;SDS011;1618;47.056;15.472;2023-12-20T11:53:37;34.30;;;32.20;;
3211;SDS011;1618;47.056;15.472;2023-12-20T11:56:11;33.47;;;31.47;;
3211;SDS011;1618;47.056;15.472;2023-12-20T11:58:39;33.60;;;31.50;;
3211;SDS011;1618;47.056;15.472;2023-12-20T12:01:08;34.50;;;32.40;;
3211;SDS011;1618;47.056;15.472;2023-12-20T12:03:37;34.70;;;32.50;;
3211;SDS011;1618;47.056;15.472;2023-12-20T12:06:04;34.20;;;32.00;;
3211;SDS011;1618;47.056;15.472;2023-12-20T12:08:36;34.77;;;32.57;;
3211;SDS011;1618;47.056;15.472;2023-12-20T12:11:03;33.40;;;31.20;;
3211;SDS011;1618;47.056;15.472;2023-12-20T12:13:33;33.37;;;31.27;;
3211;SDS011;1618;47.056;15.472;2023-12-20T12:16:00;33.80;;;31.67;;
3211;SDS011;1618;47.056;15.472;2023-12-20T12:18:28;33.53;;;31.43;;
3211;SDS011;1618;47.056;15.472;2023-12-20T12:21:02;32.30;;;30.20;;
3211;SDS011;1618;47.056;15.472;2023-12-20T12:23:29;32.77;;;30.67;;
3211;SDS011;1618;47.056;15.472;2023-12-20T12:25:59;33.00;;;30.90;;
3211;SDS011;1618;47.056;15.472;2023-12-20T12:28:27;34.07;;;31.97;;
3211;SDS011;1618;47.056;15.472;2023-12-20T12:30:59;33.57;;;31.47;;
3211;SDS011;1618;47.056;15.472;2023-12-20T12:33:29;35.00;;;32.70;;
3211;SDS011;1618;47.056;15.472;2023-12-20T12:35:57;33.27;;;31.27;;
3211;SDS011;1618;47.056;15.472;2023-12-20T12:38:26;33.87;;;31.87;;
3211;SDS011;1618;47.056;15.472;2023-12-20T12:40:54;34.07;;;31.97;;
3211;SDS011;1618;47.056;15.472;2023-12-20T12:43:25;34.60;;;32.50;;
3211;SDS011;1618;47.056;15.472;2023-12-20T12:45:55;33.00;;;31.10;;
3211;SDS011;1618;47.056;15.472;2023-12-20T12:48:23;32.43;;;30.53;;
3211;SDS011;1618;47.056;15.472;2023-12-20T12:50:51;33.33;;;31.33;;
3211;SDS011;1618;47.056;15.472;2023-12-20T12:53:19;33.30;;;31.30;;
3211;SDS011;1618;47.056;15.472;2023-12-20T12:55:46;33.33;;;31.33;;
3211;SDS011;1618;47.056;15.472;2023-12-20T12:58:15;34.10;;;32.10;;
3211;SDS011;1618;47.056;15.472;2023-12-20T13:00:44;34.33;;;32.23;;
3211;SDS011;1618;47.056;15.472;2023-12-20T13:03:12;34.60;;;32.50;;
3211;SDS011;1618;47.056;15.472;2023-12-20T13:05:39;34.33;;;32.23;;
3211;SDS011;1618;47.056;15.472;2023-12-20T13:08:06;34.53;;;32.43;;
3211;SDS011;1618;47.056;15.472;2023-12-20T13:10:34;34.17;;;32.17;;
3211;SDS011;1618;47.056;15.472;2023-12-20T13:13:03;34.07;;;31.97;;
3211;SDS011;1618;47.056;15.472;2023-12-20T13:15:32;34.10;;;32.00;;
3211;SDS011;1618;47.056;15.472;2023-12-20T13:18:01;34.17;;;32.07;;
3211;SDS011;1618;47.056;15.472;2023-12-20T13:20:29;33.80;;;31.70;;
3211;SDS011;1618;47.056;15.472;2023-12-20T13:22:58;34.00;;;31.90;;
3211;SDS011;1618;47.056;15.472;2023-12-20T13:25:26;33.83;;;31.73;;
3211;SDS011;1618;47.056;15.472;2023-12-20T13:27:53;34.00;;;31.90;;
3211;SDS011;1618;47.056;15.472;2023-12-20T13:30:21;33.40;;;31.30;;
3211;SDS011;1618;47.056;15.472;2023-12-20T13:32:49;33.40;;;31.30;;
3211;SDS011;1618;47.056;15.472;2023-12-20T13:35:18;32.73;;;30.73;;
3211;SDS011;1618;47.056;15.472;2023-12-20T13:37:46;32.47;;;30.47;;
3211;SDS011;1618;47.056;15.472;2023-12-20T13:40:15;33.27;;;31.27;;
3211;SDS011;1618;47.056;15.472;2023-12-20T13:42:43;32.40;;;30.50;;
3211;SDS011;1618;47.056;15.472;2023-12-20T13:45:11;32.87;;;30.87;;
3211;SDS011;1618;47.056;15.472;2023-12-20T13:47:40;33.27;;;31.27;;
3211;SDS011;1618;47.056;15.472;2023-12-20T13:50:07;32.43;;;30.50;;
3211;SDS011;1618;47.056;15.472;2023-12-20T13:52:38;33.80;;;31.80;;
3211;SDS011;1618;47.056;15.472;2023-12-20T13:55:05;33.80;;;31.80;;
3211;SDS011;1618;47.056;15.472;2023-12-20T13:57:33;33.50;;;31.50;;
3211;SDS011;1618;47.056;15.472;2023-12-20T14:00:03;34.07;;;31.97;;
3211;SDS011;1618;47.056;15.472;2023-12-20T14:02:30;33.83;;;31.83;;
3211;SDS011;1618;47.056;15.472;2023-12-20T14:04:58;34.30;;;32.30;;
3211;SDS011;1618;47.056;15.472;2023-12-20T14:07:26;35.40;;;33.40;;
3211;SDS011;1618;47.056;15.472;2023-12-20T14:09:55;35.17;;;33.17;;
3211;SDS011;1618;47.056;15.472;2023-12-20T14:12:24;35.30;;;33.30;;
3211;SDS011;1618;47.056;15.472;2023-12-20T14:14:52;35.30;;;33.40;;
3211;SDS011;1618;47.056;15.472;2023-12-20T14:17:22;34.60;;;32.70;;
3211;SDS011;1618;47.056;15.472;2023-12-20T14:19:50;33.90;;;32.00;;
3211;SDS011;1618;47.056;15.472;2023-12-20T14:22:19;34.83;;;32.93;;
3211;SDS011;1618;47.056;15.472;2023-12-20T14:24:47;35.10;;;33.20;;
3211;SDS011;1618;47.056;15.472;2023-12-20T14:27:17;35.27;;;33.30;;
3211;SDS011;1618;47.056;15.472;2023-12-20T14:29:47;36.33;;;34.33;;
3211;SDS011;1618;47.056;15.472;2023-12-20T14:32:15;35.37;;;33.47;;
3211;SDS011;1618;47.056;15.472;2023-12-20T14:34:45;35.03;;;33.23;;
3211;SDS011;1618;47.056;15.472;2023-12-20T14:37:13;35.80;;;33.90;;
3211;SDS011;1618;47.056;15.472;2023-12-20T14:39:43;35.90;;;34.00;;
3211;SDS011;1618;47.056;15.472;2023-12-20T14:42:11;36.60;;;34.70;;